createdAt,value
2022-11-01T00:02:01.403Z,101583.28
2022-11-01T00:04:29.213Z,101578.25
2022-11-01T00:06:56.791Z,101587.56
2022-11-01T00:09:24.782Z,101578.81
2022-11-01T00:11:52.452Z,101587.66
2022-11-01T00:14:20.451Z,101582.09
2022-11-01T00:16:48.895Z,101573.75
2022-11-01T00:19:16.703Z,101584.38
2022-11-01T00:21:44.737Z,101579.75
2022-11-01T00:24:12.730Z,101580.28
2022-11-01T00:26:41.228Z,101577.00
2022-11-01T00:29:08.948Z,101581.44
2022-11-01T00:31:36.488Z,101580.06
2022-11-01T00:34:06.146Z,101579.22
2022-11-01T00:36:35.513Z,101580.59
2022-11-01T00:39:04.156Z,101582.19
2022-11-01T00:41:32.170Z,101573.31
2022-11-01T00:44:00.033Z,101568.66
2022-11-01T00:46:27.986Z,101571.19
2022-11-01T00:48:55.460Z,101573.81
2022-11-01T00:51:23.401Z,101567.84
2022-11-01T00:53:50.959Z,101575.66
2022-11-01T00:56:18.682Z,101565.94
2022-11-01T00:58:46.542Z,101561.28
2022-11-01T01:01:14.197Z,101569.84
2022-11-01T01:03:41.854Z,101575.44
2022-11-01T01:06:09.825Z,101568.88
2022-11-01T01:08:37.756Z,101568.69
2022-11-01T01:11:05.707Z,101566.03
2022-11-01T01:13:33.664Z,101569.31
2022-11-01T01:16:01.229Z,101564.34
2022-11-01T01:18:28.675Z,101568.91
2022-11-01T01:21:04.599Z,101572.16
2022-11-01T01:23:32.720Z,101572.25
2022-11-01T01:26:05.739Z,101562.03
2022-11-01T01:28:33.313Z,101572.06
2022-11-01T01:31:00.848Z,101562.69
2022-11-01T01:33:28.634Z,101568.47
2022-11-01T01:35:56.205Z,101572.59
2022-11-01T01:38:23.960Z,101562.97
2022-11-01T01:40:51.495Z,101571.22
2022-11-01T01:43:18.946Z,101564.56
2022-11-01T01:45:46.487Z,101566.94
2022-11-01T01:48:27.525Z,101570.44
2022-11-01T01:51:00.800Z,101571.69
2022-11-01T01:53:38.715Z,101570.63
2022-11-01T01:56:18.300Z,101573.78
2022-11-01T01:59:01.350Z,101578.75
2022-11-01T02:01:29.908Z,101571.91
2022-11-01T02:04:03.662Z,101570.94
2022-11-01T02:06:33.404Z,101563.47
2022-11-01T02:09:04.127Z,101566.63
2022-11-01T02:11:32.033Z,101556.81
2022-11-01T02:14:00.854Z,101565.34
2022-11-01T02:16:34.453Z,101571.56
2022-11-01T02:19:39.297Z,101565.34
2022-11-01T02:22:10.233Z,101561.22
2022-11-01T02:24:46.674Z,101568.09
2022-11-01T02:27:20.581Z,101560.38
2022-11-01T02:30:06.650Z,101561.81
2022-11-01T02:32:46.067Z,101569.00
2022-11-01T02:35:25.387Z,101561.41
2022-11-01T02:38:14.527Z,101564.31
2022-11-01T02:40:48.178Z,101566.03
2022-11-01T02:43:21.559Z,101567.63
2022-11-01T02:45:50.815Z,101556.97
2022-11-01T02:48:21.797Z,101561.50
2022-11-01T02:50:56.413Z,101565.19
2022-11-01T02:53:23.997Z,101563.28
2022-11-01T02:55:53.584Z,101559.03
2022-11-01T02:58:29.101Z,101562.53
2022-11-01T03:00:57.202Z,101568.53
2022-11-01T03:03:32.521Z,101567.47
2022-11-01T03:06:00.424Z,101573.81
2022-11-01T03:08:57.790Z,101579.69
2022-11-01T03:11:58.527Z,101580.03
2022-11-01T03:14:59.944Z,101583.50
2022-11-01T03:17:39.735Z,101580.84
2022-11-01T03:20:23.197Z,101581.69
2022-11-01T03:22:56.754Z,101574.56
2022-11-01T03:25:41.819Z,101580.66
2022-11-01T03:28:19.268Z,101573.31
2022-11-01T03:30:53.586Z,101581.94
2022-11-01T03:33:23.274Z,101581.91
2022-11-01T03:35:54.519Z,101580.84
2022-11-01T03:38:26.975Z,101578.53
2022-11-01T03:41:01.238Z,101575.44
2022-11-01T03:43:31.501Z,101577.78
2022-11-01T03:45:59.172Z,101579.28
2022-11-01T03:48:26.825Z,101572.41
2022-11-01T03:50:58.626Z,101585.22
2022-11-01T03:53:26.651Z,101597.78
2022-11-01T03:55:54.814Z,101611.44
2022-11-01T03:58:22.817Z,101610.38
2022-11-01T04:00:51.020Z,101606.53
2022-11-01T04:03:18.970Z,101603.69
2022-11-01T04:05:46.959Z,101604.06
2022-11-01T04:08:14.729Z,101605.94
2022-11-01T04:10:44.653Z,101601.22
2022-11-01T04:13:13.747Z,101605.72
2022-11-01T04:16:00.982Z,101608.84
2022-11-01T04:18:46.995Z,101603.50
2022-11-01T04:21:18.671Z,101601.03
2022-11-01T04:23:47.233Z,101599.06
2022-11-01T04:26:17.707Z,101601.53
2022-11-01T04:28:57.061Z,101610.91
2022-11-01T04:31:37.171Z,101599.91
2022-11-01T04:34:05.721Z,101601.03
2022-11-01T04:36:33.940Z,101601.22
2022-11-01T04:39:01.526Z,101601.44
2022-11-01T04:41:30.504Z,101603.22
2022-11-01T04:43:59.225Z,101592.03
2022-11-01T04:46:30.747Z,101587.34
2022-11-01T04:48:58.754Z,101590.06
2022-11-01T04:51:26.326Z,101591.84
2022-11-01T04:53:54.310Z,101584.31
2022-11-01T04:56:22.518Z,101578.31
2022-11-01T04:58:50.914Z,101581.50
2022-11-01T05:01:18.555Z,101584.31
2022-11-01T05:03:48.234Z,101590.06
2022-11-01T05:06:16.215Z,101589.66
2022-11-01T05:08:44.176Z,101589.56
2022-11-01T05:11:12.649Z,101594.13
2022-11-01T05:13:40.143Z,101593.53
2022-11-01T05:16:19.475Z,101591.22
2022-11-01T05:18:48.456Z,101594.56
2022-11-01T05:21:16.969Z,101592.22
2022-11-01T05:23:44.454Z,101592.88
2022-11-01T05:26:12.463Z,101601.44
2022-11-01T05:28:39.935Z,101604.44
2022-11-01T05:31:07.933Z,101609.13
2022-11-01T05:33:35.559Z,101601.97
2022-11-01T05:36:03.161Z,101602.69
2022-11-01T05:38:31.154Z,101608.69
2022-11-01T05:41:01.808Z,101610.19
2022-11-01T05:43:29.297Z,101609.34
2022-11-01T05:45:57.235Z,101613.28
2022-11-01T05:48:24.803Z,101614.13
2022-11-01T05:50:52.383Z,101616.84
2022-11-01T05:53:20.955Z,101623.03
2022-11-01T05:55:48.540Z,101622.28
2022-11-01T05:58:16.036Z,101626.06
2022-11-01T06:00:43.970Z,101615.91
2022-11-01T06:03:11.482Z,101617.03
2022-11-01T06:05:39.710Z,101619.56
2022-11-01T06:08:07.650Z,101629.06
2022-11-01T06:10:35.561Z,101618.53
2022-11-01T06:13:03.344Z,101621.47
2022-11-01T06:15:34.305Z,101632.41
2022-11-01T06:18:05.854Z,101627.59
2022-11-01T06:20:34.674Z,101629.50
2022-11-01T06:23:08.440Z,101635.38
2022-11-01T06:25:36.617Z,101636.22
2022-11-01T06:28:04.682Z,101636.66
2022-11-01T06:30:32.672Z,101642.91
2022-11-01T06:33:01.534Z,101639.38
2022-11-01T06:35:29.373Z,101646.91
2022-11-01T06:38:02.669Z,101651.22
2022-11-01T06:40:30.742Z,101644.19
2022-11-01T06:43:02.846Z,101654.63
2022-11-01T06:45:32.222Z,101646.72
2022-11-01T06:48:00.033Z,101647.31
2022-11-01T06:50:28.159Z,101654.03
2022-11-01T06:52:58.465Z,101646.34
2022-11-01T06:55:27.451Z,101652.47
2022-11-01T06:58:00.668Z,101658.34
2022-11-01T07:00:29.786Z,101659.25
2022-11-01T07:03:01.725Z,101661.75
2022-11-01T07:05:34.404Z,101657.19
2022-11-01T07:08:09.585Z,101671.41
2022-11-01T07:10:39.122Z,101676.97
2022-11-01T07:13:09.385Z,101669.91
2022-11-01T07:15:37.432Z,101680.47
2022-11-01T07:18:08.324Z,101674.81
2022-11-01T07:20:41.675Z,101679.03
2022-11-01T07:23:16.082Z,101678.06
2022-11-01T07:25:44.410Z,101687.25
2022-11-01T07:28:12.140Z,101691.19
2022-11-01T07:30:40.380Z,101683.72
2022-11-01T07:33:07.966Z,101689.63
2022-11-01T07:35:36.003Z,101685.94
2022-11-01T07:38:06.500Z,101692.31
2022-11-01T07:40:39.527Z,101690.63
2022-11-01T07:43:07.722Z,101692.81
2022-11-01T07:45:36.280Z,101688.19
2022-11-01T07:48:10.598Z,101693.31
2022-11-01T07:50:40.341Z,101699.34
2022-11-01T07:53:19.492Z,101691.78
2022-11-01T07:55:47.685Z,101693.84
2022-11-01T07:58:16.374Z,101690.69
2022-11-01T08:00:44.962Z,101698.25
2022-11-01T08:03:17.715Z,101698.94
2022-11-01T08:05:46.908Z,101693.84
2022-11-01T08:08:16.157Z,101694.94
2022-11-01T08:10:43.927Z,101701.84
2022-11-01T08:13:22.957Z,101695.94
2022-11-01T08:15:52.352Z,101698.69
2022-11-01T08:18:24.590Z,101704.25
2022-11-01T08:20:52.965Z,101699.91
2022-11-01T08:23:20.917Z,101704.25
2022-11-01T08:25:48.506Z,101698.72
2022-11-01T08:28:20.431Z,101704.19
2022-11-01T08:30:49.697Z,101692.94
2022-11-01T08:33:17.705Z,101690.97
2022-11-01T08:35:50.166Z,101704.72
2022-11-01T08:38:19.062Z,101694.19
2022-11-01T08:40:47.111Z,101703.53
2022-11-01T08:43:14.740Z,101702.31
2022-11-01T08:45:42.722Z,101701.09
2022-11-01T08:48:11.198Z,101695.31
2022-11-01T08:50:39.311Z,101695.91
2022-11-01T08:53:13.097Z,101704.34
2022-11-01T08:55:41.756Z,101705.00
2022-11-01T08:58:09.670Z,101704.47
2022-11-01T09:00:37.725Z,101704.09
2022-11-01T09:03:05.792Z,101708.78
2022-11-01T09:05:33.537Z,101700.84
2022-11-01T09:08:02.474Z,101704.38
2022-11-01T09:10:30.979Z,101704.84
2022-11-01T09:13:01.022Z,101711.97
2022-11-01T09:15:30.108Z,101710.41
2022-11-01T09:17:57.655Z,101715.69
2022-11-01T09:20:26.535Z,101711.84
2022-11-01T09:22:54.014Z,101713.44
2022-11-01T09:25:21.559Z,101712.44
2022-11-01T09:27:49.091Z,101706.13
2022-11-01T09:30:16.665Z,101713.44
2022-11-01T09:32:45.137Z,101715.09
2022-11-01T09:35:13.204Z,101720.63
2022-11-01T09:37:41.155Z,101723.34
2022-11-01T09:40:10.517Z,101726.13
2022-11-01T09:42:42.621Z,101727.72
2022-11-01T09:45:23.750Z,101722.66
2022-11-01T09:47:55.022Z,101731.69
2022-11-01T09:50:27.546Z,101735.69
2022-11-01T09:52:56.617Z,101734.03
2022-11-01T09:55:54.610Z,101725.22
2022-11-01T09:58:35.315Z,101724.00
2022-11-01T10:01:19.812Z,101721.44
2022-11-01T10:04:02.473Z,101722.44
2022-11-01T10:06:54.157Z,101726.47
2022-11-01T10:09:40.273Z,101715.34
2022-11-01T10:12:26.586Z,101717.03
2022-11-01T10:14:56.975Z,101713.63
2022-11-01T10:17:49.410Z,101711.38
2022-11-01T10:20:24.607Z,101718.97
2022-11-01T10:22:52.268Z,101709.47
2022-11-01T10:25:19.817Z,101713.13
2022-11-01T10:27:56.577Z,101715.81
2022-11-01T10:30:25.970Z,101719.84
2022-11-01T10:33:03.580Z,101720.88
2022-11-01T10:35:38.905Z,101715.22
2022-11-01T10:38:41.539Z,101711.59
2022-11-01T10:41:10.137Z,101722.69
2022-11-01T10:43:44.660Z,101719.31
2022-11-01T10:46:20.485Z,101719.28
2022-11-01T10:48:58.713Z,101724.63
2022-11-01T10:51:30.530Z,101720.69
2022-11-01T10:54:03.588Z,101711.84
2022-11-01T10:56:36.715Z,101704.91
2022-11-01T10:59:18.064Z,101711.00
2022-11-01T11:01:47.997Z,101702.44
2022-11-01T11:04:20.348Z,101702.69
2022-11-01T11:06:48.740Z,101697.44
2022-11-01T11:09:28.288Z,101702.31
2022-11-01T11:12:02.022Z,101694.06
2022-11-01T11:14:33.065Z,101691.44
2022-11-01T11:17:03.034Z,101691.63
2022-11-01T11:19:30.809Z,101683.31
2022-11-01T11:22:00.007Z,101685.88
2022-11-01T11:24:39.705Z,101676.00
2022-11-01T11:27:22.399Z,101667.78
2022-11-01T11:29:53.715Z,101667.38
2022-11-01T11:32:32.164Z,101668.59
2022-11-01T11:35:04.123Z,101675.00
2022-11-01T11:37:38.721Z,101681.34
2022-11-01T11:40:24.722Z,101686.44
2022-11-01T11:42:55.178Z,101684.25
2022-11-01T11:45:31.185Z,101685.81
2022-11-01T11:48:19.457Z,101676.97
2022-11-01T11:50:47.082Z,101678.69
2022-11-01T11:53:24.583Z,101688.03
2022-11-01T11:55:57.990Z,101685.16
2022-11-01T11:58:32.943Z,101682.75
2022-11-01T12:01:04.933Z,101670.84
2022-11-01T12:03:52.563Z,101675.09
2022-11-01T12:06:26.964Z,101681.47
2022-11-01T12:08:59.492Z,101674.81
2022-11-01T12:11:46.916Z,101679.22
2022-11-01T12:14:25.712Z,101667.69
2022-11-01T12:16:53.283Z,101667.06
2022-11-01T12:19:27.516Z,101661.03
2022-11-01T12:22:04.374Z,101656.00
2022-11-01T12:24:35.738Z,101650.22
2022-11-01T12:27:09.439Z,101640.13
2022-11-01T12:29:47.491Z,101625.97
2022-11-01T12:32:30.470Z,101624.69
2022-11-01T12:35:07.500Z,101632.81
2022-11-01T12:37:47.015Z,101627.78
2022-11-01T12:40:29.904Z,101622.19
2022-11-01T12:43:13.080Z,101612.91
2022-11-01T12:45:56.438Z,101617.81
2022-11-01T12:48:33.588Z,101602.09
2022-11-01T12:51:12.480Z,101603.19
2022-11-01T12:54:15.310Z,101603.41
2022-11-01T12:56:43.027Z,101604.25
2022-11-01T12:59:13.852Z,101602.22
2022-11-01T13:01:50.934Z,101604.75
2022-11-01T13:04:28.883Z,101594.94
2022-11-01T13:07:07.551Z,101587.47
2022-11-01T13:10:05.073Z,101591.91
2022-11-01T13:12:42.327Z,101588.78
2022-11-01T13:15:28.365Z,101596.25
2022-11-01T13:18:12.267Z,101591.84
2022-11-01T13:20:49.989Z,101583.38
2022-11-01T13:23:48.551Z,101588.31
2022-11-01T13:26:41.371Z,101594.41
2022-11-01T13:29:21.710Z,101610.75
2022-11-01T13:31:52.398Z,101606.47
2022-11-01T13:34:37.428Z,101605.78
2022-11-01T13:37:27.311Z,101617.84
2022-11-01T13:40:03.991Z,101621.50
2022-11-01T13:42:38.973Z,101615.19
2022-11-01T13:45:12.508Z,101614.84
2022-11-01T13:48:06.163Z,101614.47
2022-11-01T13:51:10.965Z,101608.16
2022-11-01T13:53:49.529Z,101605.78
2022-11-01T13:56:46.458Z,101604.41
2022-11-01T13:59:44.739Z,101603.94
2022-11-01T14:02:28.187Z,101600.91
2022-11-01T14:05:02.479Z,101611.72
2022-11-01T14:07:53.614Z,101616.22
2022-11-01T14:10:48.567Z,101612.78
2022-11-01T14:13:19.045Z,101617.00
2022-11-01T14:16:16.660Z,101618.97
2022-11-01T14:19:02.833Z,101616.94
2022-11-01T14:21:44.303Z,101623.38
2022-11-01T14:24:22.536Z,101608.28
2022-11-01T14:27:05.041Z,101616.13
2022-11-01T14:29:36.163Z,101618.03
2022-11-01T14:32:04.629Z,101612.97
2022-11-01T14:34:35.842Z,101620.25
2022-11-01T14:37:14.692Z,101621.09
2022-11-01T14:39:59.564Z,101622.44
2022-11-01T14:42:37.273Z,101626.09
2022-11-01T14:45:24.945Z,101620.63
2022-11-01T14:47:56.405Z,101624.78
2022-11-01T14:50:45.011Z,101613.03
2022-11-01T14:53:24.431Z,101611.34
2022-11-01T14:56:05.919Z,101607.44
2022-11-01T14:58:33.564Z,101605.19
2022-11-01T15:01:12.727Z,101602.00
2022-11-01T15:03:46.423Z,101599.34
2022-11-01T15:06:22.885Z,101600.72
2022-11-01T15:08:50.739Z,101599.59
2022-11-01T15:11:18.852Z,101598.63
2022-11-01T15:13:46.822Z,101602.84
2022-11-01T15:16:16.447Z,101600.56
2022-11-01T15:18:50.147Z,101614.63
2022-11-01T15:21:25.535Z,101609.72
2022-11-01T15:23:57.605Z,101611.94
2022-11-01T15:26:29.900Z,101605.38
2022-11-01T15:29:01.873Z,101612.06
2022-11-01T15:31:31.097Z,101612.78
2022-11-01T15:34:02.330Z,101617.84
2022-11-01T15:36:35.964Z,101620.50
2022-11-01T15:39:15.352Z,101627.03
2022-11-01T15:41:42.932Z,101635.00
2022-11-01T15:44:24.890Z,101628.81
2022-11-01T15:46:59.247Z,101632.06
2022-11-01T15:49:32.792Z,101636.13
2022-11-01T15:52:02.915Z,101641.72
2022-11-01T15:54:36.713Z,101653.78
2022-11-01T15:57:13.084Z,101639.41
2022-11-01T16:00:23.080Z,101655.34
2022-11-01T16:02:56.696Z,101659.59
2022-11-01T16:05:26.700Z,101664.88
2022-11-01T16:07:54.722Z,101664.06
2022-11-01T16:10:25.715Z,101658.88
2022-11-01T16:12:54.419Z,101655.38
2022-11-01T16:15:24.190Z,101653.94
2022-11-01T16:17:55.780Z,101647.22
2022-11-01T16:20:34.101Z,101655.72
2022-11-01T16:23:04.368Z,101666.69
2022-11-01T16:25:34.710Z,101671.00
2022-11-01T16:28:10.178Z,101675.34
2022-11-01T16:30:49.934Z,101675.81
2022-11-01T16:33:36.941Z,101684.88
2022-11-01T16:36:38.047Z,101694.22
2022-11-01T16:39:25.574Z,101706.91
2022-11-01T16:41:53.810Z,101706.06
2022-11-01T16:44:22.448Z,101706.63
2022-11-01T16:46:50.290Z,101713.94
2022-11-01T16:49:23.239Z,101725.91
2022-11-01T16:51:53.302Z,101724.72
2022-11-01T16:54:21.271Z,101734.63
2022-11-01T16:56:54.764Z,101730.91
2022-11-01T16:59:38.207Z,101734.91
2022-11-01T17:02:17.734Z,101732.91
2022-11-01T17:04:49.794Z,101727.59
2022-11-01T17:07:17.719Z,101725.38
2022-11-01T17:09:48.402Z,101731.19
2022-11-01T17:12:16.411Z,101728.75
2022-11-01T17:14:45.895Z,101723.13
2022-11-01T17:17:17.209Z,101717.66
2022-11-01T17:19:49.217Z,101709.69
2022-11-01T17:22:20.905Z,101709.25
2022-11-01T17:24:48.729Z,101712.13
2022-11-01T17:27:18.622Z,101711.91
2022-11-01T17:29:46.297Z,101712.91
2022-11-01T17:32:14.754Z,101708.81
2022-11-01T17:34:42.347Z,101707.25
2022-11-01T17:37:17.140Z,101702.88
2022-11-01T17:39:44.809Z,101700.97
2022-11-01T17:42:12.358Z,101701.50
2022-11-01T17:44:40.268Z,101708.09
2022-11-01T17:47:13.716Z,101701.50
2022-11-01T17:49:41.668Z,101702.19
2022-11-01T17:52:09.251Z,101684.94
2022-11-01T17:54:37.435Z,101685.78
2022-11-01T17:57:05.599Z,101686.41
2022-11-01T17:59:33.587Z,101686.75
2022-11-01T18:02:02.290Z,101691.59
2022-11-01T18:04:35.517Z,101686.75
2022-11-01T18:07:06.555Z,101686.28
2022-11-01T18:09:34.641Z,101686.66
2022-11-01T18:12:02.755Z,101687.63
2022-11-01T18:14:46.934Z,101688.34
2022-11-01T18:17:49.043Z,101687.63
2022-11-01T18:20:30.082Z,101693.28
2022-11-01T18:23:03.522Z,101685.66
2022-11-01T18:25:37.155Z,101690.63
2022-11-01T18:28:13.561Z,101683.28
2022-11-01T18:30:47.576Z,101695.78
2022-11-01T18:33:19.391Z,101684.25
2022-11-01T18:35:54.578Z,101692.19
2022-11-01T18:38:41.777Z,101699.66
2022-11-01T18:41:13.599Z,101710.03
2022-11-01T18:43:43.185Z,101708.69
2022-11-01T18:46:24.959Z,101707.25
2022-11-01T18:49:00.167Z,101708.81
2022-11-01T18:51:34.691Z,101710.66
2022-11-01T18:54:04.906Z,101705.44
2022-11-01T18:56:32.825Z,101697.25
2022-11-01T18:59:01.803Z,101715.91
2022-11-01T19:01:34.327Z,101710.50
2022-11-01T19:04:11.616Z,101726.47
2022-11-01T19:06:39.113Z,101726.03
2022-11-01T19:09:21.406Z,101721.47
2022-11-01T19:11:57.673Z,101729.19
2022-11-01T19:14:25.582Z,101729.91
2022-11-01T19:16:54.129Z,101737.28
2022-11-01T19:19:21.950Z,101728.00
2022-11-01T19:21:49.498Z,101722.94
2022-11-01T19:24:39.867Z,101719.16
2022-11-01T19:27:25.381Z,101719.75
2022-11-01T19:29:57.914Z,101718.41
2022-11-01T19:32:26.744Z,101716.34
2022-11-01T19:34:55.287Z,101725.56
2022-11-01T19:37:33.073Z,101720.81
2022-11-01T19:40:09.964Z,101720.44
2022-11-01T19:42:39.186Z,101720.34
2022-11-01T19:45:09.404Z,101714.97
2022-11-01T19:47:40.266Z,101721.97
2022-11-01T19:50:22.145Z,101727.25
2022-11-01T19:52:56.858Z,101730.56
2022-11-01T19:55:36.803Z,101724.97
2022-11-01T19:58:25.028Z,101730.06
2022-11-01T20:01:03.441Z,101724.13
2022-11-01T20:03:41.795Z,101736.00
2022-11-01T20:06:46.760Z,101732.78
2022-11-01T20:09:34.236Z,101735.25
2022-11-01T20:12:02.904Z,101738.28
2022-11-01T20:14:33.343Z,101731.53
2022-11-01T20:17:01.666Z,101738.06
2022-11-01T20:19:31.207Z,101744.94
2022-11-01T20:21:59.422Z,101740.00
2022-11-01T20:24:27.568Z,101742.75
2022-11-01T20:26:55.542Z,101750.13
2022-11-01T20:29:23.933Z,101754.06
2022-11-01T20:31:51.917Z,101757.34
2022-11-01T20:34:20.648Z,101758.38
2022-11-01T20:37:08.090Z,101755.84
2022-11-01T20:39:36.487Z,101756.69
2022-11-01T20:42:04.271Z,101751.59
2022-11-01T20:44:32.276Z,101753.00
2022-11-01T20:46:59.750Z,101759.44
2022-11-01T20:49:28.165Z,101766.19
2022-11-01T20:52:03.892Z,101769.16
2022-11-01T20:54:41.635Z,101757.94
2022-11-01T20:57:24.757Z,101762.47
2022-11-01T20:59:56.445Z,101761.63
2022-11-01T21:02:24.539Z,101766.16
2022-11-01T21:05:19.877Z,101777.47
2022-11-01T21:07:48.194Z,101771.88
2022-11-01T21:10:36.682Z,101778.19
2022-11-01T21:13:32.760Z,101774.00
2022-11-01T21:16:02.307Z,101773.34
2022-11-01T21:18:29.776Z,101782.63
2022-11-01T21:20:59.117Z,101786.13
2022-11-01T21:23:32.097Z,101782.22
2022-11-01T21:26:11.691Z,101782.00
2022-11-01T21:28:43.709Z,101784.56
2022-11-01T21:31:14.579Z,101782.22
2022-11-01T21:33:49.089Z,101784.19
2022-11-01T21:36:29.516Z,101775.78
2022-11-01T21:39:01.320Z,101780.13
2022-11-01T21:41:33.907Z,101780.50
2022-11-01T21:44:26.384Z,101781.06
2022-11-01T21:47:19.601Z,101783.25
2022-11-01T21:49:47.809Z,101777.88
2022-11-01T21:52:15.744Z,101780.50
2022-11-01T21:54:44.263Z,101771.94
2022-11-01T21:57:13.276Z,101782.34
2022-11-01T21:59:41.719Z,101779.78
2022-11-01T22:02:12.473Z,101776.78
2022-11-01T22:04:40.559Z,101775.59
2022-11-01T22:07:10.092Z,101774.31
2022-11-01T22:09:39.136Z,101773.19
2022-11-01T22:12:07.878Z,101773.91
2022-11-01T22:14:35.957Z,101775.69
2022-11-01T22:17:03.496Z,101774.00
2022-11-01T22:19:31.420Z,101784.19
2022-11-01T22:22:00.061Z,101773.00
2022-11-01T22:24:28.522Z,101790.91
2022-11-01T22:26:56.037Z,101789.13
2022-11-01T22:29:23.638Z,101785.53
2022-11-01T22:31:52.090Z,101784.44
2022-11-01T22:34:20.050Z,101788.75
2022-11-01T22:36:48.632Z,101780.41
2022-11-01T22:39:21.023Z,101780.41
2022-11-01T22:41:49.122Z,101782.97
2022-11-01T22:44:30.505Z,101776.84
2022-11-01T22:47:03.254Z,101775.06
2022-11-01T22:49:34.187Z,101774.47
2022-11-01T22:52:13.142Z,101773.25
2022-11-01T22:54:48.449Z,101773.13
2022-11-01T22:57:21.473Z,101774.28
2022-11-01T22:59:57.655Z,101774.72
2022-11-01T23:02:31.133Z,101768.22
2022-11-01T23:05:08.118Z,101773.09
2022-11-01T23:07:47.838Z,101772.91
2022-11-01T23:10:30.823Z,101772.44
2022-11-01T23:13:25.202Z,101771.81
2022-11-01T23:16:02.185Z,101768.41
2022-11-01T23:18:34.077Z,101767.84
2022-11-01T23:21:06.465Z,101767.72
2022-11-01T23:23:40.741Z,101764.59
2022-11-01T23:26:09.337Z,101767.06
2022-11-01T23:28:41.857Z,101770.44
2022-11-01T23:31:09.663Z,101763.66
2022-11-01T23:33:45.753Z,101771.75
2022-11-01T23:36:16.413Z,101772.16
2022-11-01T23:38:48.605Z,101770.84
2022-11-01T23:41:38.158Z,101772.16
2022-11-01T23:44:40.676Z,101767.84
2022-11-01T23:47:14.471Z,101760.03
2022-11-01T23:49:42.514Z,101757.38
2022-11-01T23:52:27.792Z,101759.25
2022-11-01T23:54:55.422Z,101765.47
2022-11-01T23:57:23.257Z,101760.78
2022-11-01T23:59:51.312Z,101755.50
